sensor_id;sensor_type;location;lat;lon;timestamp;P1;durP1;ratioP1;P2;durP2;ratioP2
14394;SDS011;7282;49.204;10.652;2023-05-24T00:00:12;9.07;;;5.40;;
14394;SDS011;7282;49.204;10.652;2023-05-24T00:02:39;7.93;;;5.17;;
14394;SDS011;7282;49.204;10.652;2023-05-24T00:05:08;8.53;;;5.73;;
14394;SDS011;7282;49.204;10.652;2023-05-24T00:07:36;8.77;;;4.83;;
14394;SDS011;7282;49.204;10.652;2023-05-24T00:10:03;7.73;;;5.77;;
14394;SDS011;7282;49.204;10.652;2023-05-24T00:12:31;9.20;;;5.50;;
14394;SDS011;7282;49.204;10.652;2023-05-24T00:14:57;11.93;;;6.60;;
14394;SDS011;7282;49.204;10.652;2023-05-24T00:17:24;9.90;;;5.67;;
14394;SDS011;7282;49.204;10.652;2023-05-24T00:19:51;7.23;;;5.80;;
14394;SDS011;7282;49.204;10.652;2023-05-24T00:22:18;9.93;;;5.63;;
14394;SDS011;7282;49.204;10.652;2023-05-24T00:24:46;9.03;;;5.87;;
14394;SDS011;7282;49.204;10.652;2023-05-24T00:27:13;8.43;;;5.90;;
14394;SDS011;7282;49.204;10.652;2023-05-24T00:29:40;11.80;;;6.10;;
14394;SDS011;7282;49.204;10.652;2023-05-24T00:32:07;9.77;;;5.60;;
14394;SDS011;7282;49.204;10.652;2023-05-24T00:34:34;8.77;;;5.87;;
14394;SDS011;7282;49.204;10.652;2023-05-24T00:37:01;7.70;;;5.20;;
14394;SDS011;7282;49.204;10.652;2023-05-24T00:39:27;11.63;;;5.67;;
14394;SDS011;7282;49.204;10.652;2023-05-24T00:41:54;7.33;;;5.63;;
14394;SDS011;7282;49.204;10.652;2023-05-24T00:44:21;10.63;;;5.53;;
14394;SDS011;7282;49.204;10.652;2023-05-24T00:46:47;11.23;;;6.53;;
14394;SDS011;7282;49.204;10.652;2023-05-24T00:49:14;11.63;;;6.10;;
14394;SDS011;7282;49.204;10.652;2023-05-24T00:51:41;7.27;;;6.20;;
14394;SDS011;7282;49.204;10.652;2023-05-24T00:54:08;10.93;;;6.47;;
14394;SDS011;7282;49.204;10.652;2023-05-24T00:56:34;14.50;;;7.37;;
14394;SDS011;7282;49.204;10.652;2023-05-24T00:59:01;10.07;;;5.97;;
14394;SDS011;7282;49.204;10.652;2023-05-24T01:01:28;11.83;;;6.80;;
14394;SDS011;7282;49.204;10.652;2023-05-24T01:03:57;11.53;;;7.03;;
14394;SDS011;7282;49.204;10.652;2023-05-24T01:06:24;11.07;;;6.33;;
14394;SDS011;7282;49.204;10.652;2023-05-24T01:09:04;10.37;;;6.37;;
14394;SDS011;7282;49.204;10.652;2023-05-24T01:11:41;12.20;;;6.77;;
14394;SDS011;7282;49.204;10.652;2023-05-24T01:16:48;8.80;;;6.57;;
14394;SDS011;7282;49.204;10.652;2023-05-24T01:19:33;8.77;;;6.33;;
14394;SDS011;7282;49.204;10.652;2023-05-24T01:24:41;8.30;;;5.70;;
14394;SDS011;7282;49.204;10.652;2023-05-24T01:27:14;10.60;;;6.27;;
14394;SDS011;7282;49.204;10.652;2023-05-24T01:29:37;12.53;;;6.57;;
14394;SDS011;7282;49.204;10.652;2023-05-24T01:32:04;11.87;;;6.70;;
14394;SDS011;7282;49.204;10.652;2023-05-24T01:34:32;8.27;;;6.20;;
14394;SDS011;7282;49.204;10.652;2023-05-24T01:36:58;13.07;;;6.77;;
14394;SDS011;7282;49.204;10.652;2023-05-24T01:39:26;15.23;;;7.17;;
14394;SDS011;7282;49.204;10.652;2023-05-24T01:41:59;12.17;;;6.80;;
14394;SDS011;7282;49.204;10.652;2023-05-24T01:44:41;10.70;;;6.30;;
14394;SDS011;7282;49.204;10.652;2023-05-24T01:49:49;9.97;;;6.40;;
14394;SDS011;7282;49.204;10.652;2023-05-24T01:52:18;11.87;;;6.90;;
14394;SDS011;7282;49.204;10.652;2023-05-24T01:54:46;8.47;;;5.90;;
14394;SDS011;7282;49.204;10.652;2023-05-24T01:57:15;11.87;;;7.37;;
14394;SDS011;7282;49.204;10.652;2023-05-24T01:59:43;8.07;;;6.53;;
14394;SDS011;7282;49.204;10.652;2023-05-24T02:02:11;13.07;;;6.57;;
14394;SDS011;7282;49.204;10.652;2023-05-24T02:04:38;11.27;;;7.17;;
14394;SDS011;7282;49.204;10.652;2023-05-24T02:07:05;9.60;;;6.17;;
14394;SDS011;7282;49.204;10.652;2023-05-24T02:09:31;12.20;;;6.57;;
14394;SDS011;7282;49.204;10.652;2023-05-24T02:11:58;7.27;;;6.03;;
14394;SDS011;7282;49.204;10.652;2023-05-24T02:14:25;10.57;;;6.80;;
14394;SDS011;7282;49.204;10.652;2023-05-24T02:16:52;8.60;;;6.90;;
14394;SDS011;7282;49.204;10.652;2023-05-24T02:19:20;12.70;;;6.73;;
14394;SDS011;7282;49.204;10.652;2023-05-24T02:21:47;9.37;;;6.37;;
14394;SDS011;7282;49.204;10.652;2023-05-24T02:24:13;10.13;;;6.20;;
14394;SDS011;7282;49.204;10.652;2023-05-24T02:26:41;11.13;;;6.37;;
14394;SDS011;7282;49.204;10.652;2023-05-24T02:29:08;12.97;;;7.00;;
14394;SDS011;7282;49.204;10.652;2023-05-24T02:31:34;9.60;;;5.77;;
14394;SDS011;7282;49.204;10.652;2023-05-24T02:34:01;9.13;;;6.27;;
14394;SDS011;7282;49.204;10.652;2023-05-24T02:36:28;9.70;;;6.30;;
14394;SDS011;7282;49.204;10.652;2023-05-24T02:38:54;8.13;;;6.37;;
14394;SDS011;7282;49.204;10.652;2023-05-24T02:41:21;10.63;;;6.20;;
14394;SDS011;7282;49.204;10.652;2023-05-24T02:43:48;13.33;;;6.90;;
14394;SDS011;7282;49.204;10.652;2023-05-24T02:46:15;9.27;;;6.60;;
14394;SDS011;7282;49.204;10.652;2023-05-24T02:48:44;12.00;;;6.23;;
14394;SDS011;7282;49.204;10.652;2023-05-24T02:51:11;10.27;;;6.67;;
14394;SDS011;7282;49.204;10.652;2023-05-24T02:53:38;7.30;;;6.33;;
14394;SDS011;7282;49.204;10.652;2023-05-24T02:56:04;14.20;;;7.30;;
14394;SDS011;7282;49.204;10.652;2023-05-24T02:58:32;13.53;;;7.03;;
14394;SDS011;7282;49.204;10.652;2023-05-24T03:00:59;8.43;;;6.07;;
14394;SDS011;7282;49.204;10.652;2023-05-24T03:03:26;9.40;;;5.97;;
14394;SDS011;7282;49.204;10.652;2023-05-24T03:05:53;7.70;;;6.17;;
14394;SDS011;7282;49.204;10.652;2023-05-24T03:08:20;11.77;;;6.37;;
14394;SDS011;7282;49.204;10.652;2023-05-24T03:10:46;14.20;;;6.20;;
14394;SDS011;7282;49.204;10.652;2023-05-24T03:13:13;8.43;;;6.20;;
14394;SDS011;7282;49.204;10.652;2023-05-24T03:15:40;10.03;;;6.13;;
14394;SDS011;7282;49.204;10.652;2023-05-24T03:18:07;8.63;;;5.80;;
14394;SDS011;7282;49.204;10.652;2023-05-24T03:20:34;8.83;;;5.80;;
14394;SDS011;7282;49.204;10.652;2023-05-24T03:23:01;8.27;;;6.50;;
14394;SDS011;7282;49.204;10.652;2023-05-24T03:25:28;10.70;;;6.80;;
14394;SDS011;7282;49.204;10.652;2023-05-24T03:27:54;11.43;;;6.63;;
14394;SDS011;7282;49.204;10.652;2023-05-24T03:30:21;12.40;;;7.60;;
14394;SDS011;7282;49.204;10.652;2023-05-24T03:32:48;9.60;;;6.70;;
14394;SDS011;7282;49.204;10.652;2023-05-24T03:35:14;12.27;;;7.53;;
14394;SDS011;7282;49.204;10.652;2023-05-24T03:37:41;12.33;;;6.60;;
14394;SDS011;7282;49.204;10.652;2023-05-24T03:40:08;8.37;;;6.80;;
14394;SDS011;7282;49.204;10.652;2023-05-24T03:42:35;11.30;;;7.57;;
14394;SDS011;7282;49.204;10.652;2023-05-24T03:45:02;11.40;;;7.17;;
14394;SDS011;7282;49.204;10.652;2023-05-24T03:47:29;10.20;;;7.17;;
14394;SDS011;7282;49.204;10.652;2023-05-24T03:49:56;11.93;;;6.80;;
14394;SDS011;7282;49.204;10.652;2023-05-24T03:52:23;10.70;;;7.07;;
14394;SDS011;7282;49.204;10.652;2023-05-24T03:54:50;13.23;;;7.00;;
14394;SDS011;7282;49.204;10.652;2023-05-24T03:57:16;10.37;;;7.53;;
14394;SDS011;7282;49.204;10.652;2023-05-24T03:59:43;10.77;;;6.60;;
14394;SDS011;7282;49.204;10.652;2023-05-24T04:02:10;12.77;;;7.63;;
14394;SDS011;7282;49.204;10.652;2023-05-24T04:04:36;10.00;;;7.40;;
14394;SDS011;7282;49.204;10.652;2023-05-24T04:07:03;13.47;;;7.37;;
14394;SDS011;7282;49.204;10.652;2023-05-24T04:09:30;13.13;;;7.03;;
14394;SDS011;7282;49.204;10.652;2023-05-24T04:11:57;13.50;;;6.67;;
14394;SDS011;7282;49.204;10.652;2023-05-24T04:14:23;14.67;;;7.60;;
14394;SDS011;7282;49.204;10.652;2023-05-24T04:16:50;14.10;;;7.27;;
14394;SDS011;7282;49.204;10.652;2023-05-24T04:19:18;10.20;;;6.43;;
14394;SDS011;7282;49.204;10.652;2023-05-24T04:21:45;9.90;;;7.07;;
14394;SDS011;7282;49.204;10.652;2023-05-24T04:24:12;11.90;;;6.70;;
14394;SDS011;7282;49.204;10.652;2023-05-24T04:26:38;11.07;;;6.00;;
14394;SDS011;7282;49.204;10.652;2023-05-24T04:29:05;9.77;;;7.07;;
14394;SDS011;7282;49.204;10.652;2023-05-24T04:31:32;12.97;;;7.40;;
14394;SDS011;7282;49.204;10.652;2023-05-24T04:33:59;8.50;;;7.17;;
14394;SDS011;7282;49.204;10.652;2023-05-24T04:36:27;11.30;;;6.70;;
14394;SDS011;7282;49.204;10.652;2023-05-24T04:38:53;11.37;;;7.10;;
14394;SDS011;7282;49.204;10.652;2023-05-24T04:41:22;10.43;;;6.60;;
14394;SDS011;7282;49.204;10.652;2023-05-24T04:43:49;13.33;;;7.40;;
14394;SDS011;7282;49.204;10.652;2023-05-24T04:46:16;9.77;;;6.17;;
14394;SDS011;7282;49.204;10.652;2023-05-24T04:48:42;11.57;;;6.53;;
14394;SDS011;7282;49.204;10.652;2023-05-24T04:51:09;11.30;;;7.20;;
14394;SDS011;7282;49.204;10.652;2023-05-24T04:53:36;12.20;;;6.67;;
14394;SDS011;7282;49.204;10.652;2023-05-24T04:56:03;9.23;;;6.50;;
14394;SDS011;7282;49.204;10.652;2023-05-24T04:58:30;12.13;;;6.47;;
14394;SDS011;7282;49.204;10.652;2023-05-24T05:00:58;9.80;;;6.23;;
14394;SDS011;7282;49.204;10.652;2023-05-24T05:03:24;12.17;;;6.27;;
14394;SDS011;7282;49.204;10.652;2023-05-24T05:05:51;9.30;;;6.37;;
14394;SDS011;7282;49.204;10.652;2023-05-24T05:08:18;7.73;;;6.10;;
14394;SDS011;7282;49.204;10.652;2023-05-24T05:10:45;9.87;;;6.40;;
14394;SDS011;7282;49.204;10.652;2023-05-24T05:13:13;11.60;;;6.40;;
14394;SDS011;7282;49.204;10.652;2023-05-24T05:15:39;10.20;;;6.80;;
14394;SDS011;7282;49.204;10.652;2023-05-24T05:18:06;10.60;;;6.60;;
14394;SDS011;7282;49.204;10.652;2023-05-24T05:20:33;11.83;;;6.47;;
14394;SDS011;7282;49.204;10.652;2023-05-24T05:23:00;8.27;;;5.70;;
14394;SDS011;7282;49.204;10.652;2023-05-24T05:25:26;9.57;;;6.17;;
14394;SDS011;7282;49.204;10.652;2023-05-24T05:27:53;9.70;;;6.07;;
14394;SDS011;7282;49.204;10.652;2023-05-24T05:30:20;9.73;;;6.17;;
14394;SDS011;7282;49.204;10.652;2023-05-24T05:32:47;11.60;;;6.47;;
14394;SDS011;7282;49.204;10.652;2023-05-24T05:35:13;14.60;;;6.40;;
14394;SDS011;7282;49.204;10.652;2023-05-24T05:37:40;11.60;;;6.60;;
14394;SDS011;7282;49.204;10.652;2023-05-24T05:40:07;9.27;;;6.00;;
14394;SDS011;7282;49.204;10.652;2023-05-24T05:42:34;10.73;;;5.90;;
14394;SDS011;7282;49.204;10.652;2023-05-24T05:45:00;8.73;;;5.37;;
14394;SDS011;7282;49.204;10.652;2023-05-24T05:47:27;11.83;;;6.67;;
14394;SDS011;7282;49.204;10.652;2023-05-24T05:49:54;8.80;;;5.73;;
14394;SDS011;7282;49.204;10.652;2023-05-24T05:52:20;8.73;;;6.27;;
14394;SDS011;7282;49.204;10.652;2023-05-24T05:54:47;10.40;;;5.97;;
14394;SDS011;7282;49.204;10.652;2023-05-24T05:57:14;10.60;;;5.80;;
14394;SDS011;7282;49.204;10.652;2023-05-24T05:59:41;12.83;;;6.30;;
14394;SDS011;7282;49.204;10.652;2023-05-24T06:02:07;9.23;;;6.13;;
14394;SDS011;7282;49.204;10.652;2023-05-24T06:04:34;16.17;;;6.80;;
14394;SDS011;7282;49.204;10.652;2023-05-24T06:07:01;9.07;;;6.30;;
14394;SDS011;7282;49.204;10.652;2023-05-24T06:09:28;10.00;;;6.10;;
14394;SDS011;7282;49.204;10.652;2023-05-24T06:11:54;12.80;;;6.73;;
14394;SDS011;7282;49.204;10.652;2023-05-24T06:14:21;11.60;;;6.57;;
14394;SDS011;7282;49.204;10.652;2023-05-24T06:16:50;10.63;;;6.33;;
14394;SDS011;7282;49.204;10.652;2023-05-24T06:19:17;9.17;;;6.20;;
14394;SDS011;7282;49.204;10.652;2023-05-24T06:21:44;10.93;;;5.77;;
14394;SDS011;7282;49.204;10.652;2023-05-24T06:24:14;10.30;;;6.50;;
14394;SDS011;7282;49.204;10.652;2023-05-24T06:26:43;11.03;;;5.80;;
14394;SDS011;7282;49.204;10.652;2023-05-24T06:29:10;9.00;;;5.57;;
14394;SDS011;7282;49.204;10.652;2023-05-24T06:31:37;8.00;;;5.83;;
14394;SDS011;7282;49.204;10.652;2023-05-24T06:34:04;9.50;;;6.00;;
14394;SDS011;7282;49.204;10.652;2023-05-24T06:36:31;9.63;;;5.80;;
14394;SDS011;7282;49.204;10.652;2023-05-24T06:38:59;12.20;;;6.27;;
14394;SDS011;7282;49.204;10.652;2023-05-24T06:41:26;11.37;;;5.83;;
14394;SDS011;7282;49.204;10.652;2023-05-24T06:43:53;10.23;;;5.63;;
14394;SDS011;7282;49.204;10.652;2023-05-24T06:46:20;38.50;;;9.73;;
14394;SDS011;7282;49.204;10.652;2023-05-24T06:48:47;14.60;;;6.37;;
14394;SDS011;7282;49.204;10.652;2023-05-24T06:51:13;11.07;;;5.77;;
14394;SDS011;7282;49.204;10.652;2023-05-24T06:53:40;8.57;;;5.80;;
14394;SDS011;7282;49.204;10.652;2023-05-24T06:56:07;8.23;;;5.73;;
14394;SDS011;7282;49.204;10.652;2023-05-24T06:58:34;11.37;;;6.50;;
14394;SDS011;7282;49.204;10.652;2023-05-24T07:01:01;15.10;;;6.17;;
14394;SDS011;7282;49.204;10.652;2023-05-24T07:03:30;14.53;;;7.50;;
14394;SDS011;7282;49.204;10.652;2023-05-24T07:05:57;10.87;;;6.90;;
14394;SDS011;7282;49.204;10.652;2023-05-24T07:08:24;10.40;;;6.67;;
14394;SDS011;7282;49.204;10.652;2023-05-24T07:10:51;12.70;;;6.57;;
14394;SDS011;7282;49.204;10.652;2023-05-24T07:13:18;14.20;;;8.23;;
14394;SDS011;7282;49.204;10.652;2023-05-24T07:15:45;11.87;;;6.93;;
14394;SDS011;7282;49.204;10.652;2023-05-24T07:18:12;10.70;;;6.63;;
14394;SDS011;7282;49.204;10.652;2023-05-24T07:20:39;13.77;;;6.80;;
14394;SDS011;7282;49.204;10.652;2023-05-24T07:23:05;14.23;;;7.13;;
14394;SDS011;7282;49.204;10.652;2023-05-24T07:25:32;9.97;;;6.43;;
14394;SDS011;7282;49.204;10.652;2023-05-24T07:27:59;9.97;;;6.80;;
14394;SDS011;7282;49.204;10.652;2023-05-24T07:30:26;14.80;;;7.77;;
14394;SDS011;7282;49.204;10.652;2023-05-24T07:32:53;14.87;;;7.30;;
14394;SDS011;7282;49.204;10.652;2023-05-24T07:35:20;9.80;;;6.30;;
14394;SDS011;7282;49.204;10.652;2023-05-24T07:37:47;11.77;;;6.50;;
14394;SDS011;7282;49.204;10.652;2023-05-24T07:40:14;13.40;;;5.93;;
14394;SDS011;7282;49.204;10.652;2023-05-24T07:42:41;13.93;;;6.77;;
14394;SDS011;7282;49.204;10.652;2023-05-24T07:45:07;11.33;;;6.70;;
14394;SDS011;7282;49.204;10.652;2023-05-24T07:47:35;14.13;;;6.27;;
14394;SDS011;7282;49.204;10.652;2023-05-24T07:50:02;10.97;;;6.33;;
14394;SDS011;7282;49.204;10.652;2023-05-24T07:52:29;13.03;;;6.67;;
14394;SDS011;7282;49.204;10.652;2023-05-24T07:54:56;10.17;;;6.43;;
14394;SDS011;7282;49.204;10.652;2023-05-24T07:57:22;11.27;;;6.50;;
14394;SDS011;7282;49.204;10.652;2023-05-24T07:59:49;14.70;;;7.03;;
14394;SDS011;7282;49.204;10.652;2023-05-24T08:02:16;10.60;;;6.67;;
14394;SDS011;7282;49.204;10.652;2023-05-24T08:04:43;12.20;;;6.37;;
14394;SDS011;7282;49.204;10.652;2023-05-24T08:07:11;11.70;;;6.53;;
14394;SDS011;7282;49.204;10.652;2023-05-24T08:09:38;12.30;;;6.33;;
14394;SDS011;7282;49.204;10.652;2023-05-24T08:12:05;14.43;;;6.43;;
14394;SDS011;7282;49.204;10.652;2023-05-24T08:14:32;15.40;;;7.10;;
14394;SDS011;7282;49.204;10.652;2023-05-24T08:16:59;11.13;;;6.40;;
14394;SDS011;7282;49.204;10.652;2023-05-24T08:19:28;13.70;;;6.03;;
14394;SDS011;7282;49.204;10.652;2023-05-24T08:21:56;9.60;;;6.00;;
14394;SDS011;7282;49.204;10.652;2023-05-24T08:24:25;12.83;;;5.80;;
14394;SDS011;7282;49.204;10.652;2023-05-24T08:26:52;10.77;;;5.87;;
14394;SDS011;7282;49.204;10.652;2023-05-24T08:29:18;9.57;;;5.77;;
14394;SDS011;7282;49.204;10.652;2023-05-24T08:31:45;11.20;;;6.10;;
14394;SDS011;7282;49.204;10.652;2023-05-24T08:34:12;12.37;;;5.70;;
14394;SDS011;7282;49.204;10.652;2023-05-24T08:36:39;9.83;;;6.00;;
14394;SDS011;7282;49.204;10.652;2023-05-24T08:39:07;7.73;;;5.50;;
14394;SDS011;7282;49.204;10.652;2023-05-24T08:41:34;14.20;;;6.07;;
14394;SDS011;7282;49.204;10.652;2023-05-24T08:44:05;14.83;;;6.47;;
14394;SDS011;7282;49.204;10.652;2023-05-24T08:46:36;12.77;;;5.30;;
14394;SDS011;7282;49.204;10.652;2023-05-24T08:49:04;8.07;;;4.83;;
14394;SDS011;7282;49.204;10.652;2023-05-24T08:51:32;11.50;;;5.70;;
14394;SDS011;7282;49.204;10.652;2023-05-24T08:53:59;10.23;;;5.50;;
14394;SDS011;7282;49.204;10.652;2023-05-24T08:56:26;11.90;;;5.87;;
14394;SDS011;7282;49.204;10.652;2023-05-24T08:58:55;10.47;;;5.70;;
14394;SDS011;7282;49.204;10.652;2023-05-24T09:01:22;16.47;;;5.90;;
14394;SDS011;7282;49.204;10.652;2023-05-24T09:03:50;11.30;;;5.80;;
14394;SDS011;7282;49.204;10.652;2023-05-24T09:06:17;11.27;;;5.80;;
14394;SDS011;7282;49.204;10.652;2023-05-24T09:08:44;9.67;;;5.17;;
14394;SDS011;7282;49.204;10.652;2023-05-24T09:11:11;13.20;;;6.03;;
14394;SDS011;7282;49.204;10.652;2023-05-24T09:13:39;11.00;;;5.60;;
14394;SDS011;7282;49.204;10.652;2023-05-24T09:16:06;14.20;;;5.73;;
14394;SDS011;7282;49.204;10.652;2023-05-24T09:18:33;10.00;;;5.67;;
14394;SDS011;7282;49.204;10.652;2023-05-24T09:21:00;10.57;;;5.40;;
14394;SDS011;7282;49.204;10.652;2023-05-24T09:23:26;8.43;;;5.47;;
14394;SDS011;7282;49.204;10.652;2023-05-24T09:25:53;12.97;;;5.63;;
14394;SDS011;7282;49.204;10.652;2023-05-24T09:28:20;12.37;;;5.20;;
14394;SDS011;7282;49.204;10.652;2023-05-24T09:30:57;8.23;;;5.00;;
14394;SDS011;7282;49.204;10.652;2023-05-24T09:33:27;9.73;;;5.60;;
14394;SDS011;7282;49.204;10.652;2023-05-24T09:35:55;10.30;;;5.37;;
14394;SDS011;7282;49.204;10.652;2023-05-24T09:38:21;10.73;;;5.23;;
14394;SDS011;7282;49.204;10.652;2023-05-24T09:40:47;8.87;;;5.00;;
14394;SDS011;7282;49.204;10.652;2023-05-24T09:43:16;10.43;;;5.27;;
14394;SDS011;7282;49.204;10.652;2023-05-24T09:45:43;10.87;;;4.63;;
14394;SDS011;7282;49.204;10.652;2023-05-24T09:48:12;10.23;;;5.43;;
14394;SDS011;7282;49.204;10.652;2023-05-24T09:50:38;8.87;;;5.00;;
14394;SDS011;7282;49.204;10.652;2023-05-24T09:53:06;12.83;;;5.87;;
14394;SDS011;7282;49.204;10.652;2023-05-24T09:55:36;9.03;;;5.63;;
14394;SDS011;7282;49.204;10.652;2023-05-24T09:58:04;11.70;;;5.57;;
14394;SDS011;7282;49.204;10.652;2023-05-24T10:00:34;12.83;;;5.30;;
14394;SDS011;7282;49.204;10.652;2023-05-24T10:03:02;9.03;;;4.27;;
14394;SDS011;7282;49.204;10.652;2023-05-24T10:05:29;7.63;;;4.30;;
14394;SDS011;7282;49.204;10.652;2023-05-24T10:07:56;9.57;;;4.67;;
14394;SDS011;7282;49.204;10.652;2023-05-24T10:10:26;9.53;;;4.73;;
14394;SDS011;7282;49.204;10.652;2023-05-24T10:12:54;9.80;;;5.20;;
14394;SDS011;7282;49.204;10.652;2023-05-24T10:15:21;9.10;;;4.97;;
14394;SDS011;7282;49.204;10.652;2023-05-24T10:17:48;8.67;;;4.70;;
14394;SDS011;7282;49.204;10.652;2023-05-24T10:20:14;8.70;;;4.73;;
14394;SDS011;7282;49.204;10.652;2023-05-24T10:22:45;10.33;;;5.00;;
14394;SDS011;7282;49.204;10.652;2023-05-24T10:25:21;10.53;;;5.30;;
14394;SDS011;7282;49.204;10.652;2023-05-24T10:27:51;10.73;;;5.00;;
14394;SDS011;7282;49.204;10.652;2023-05-24T10:30:35;7.10;;;4.47;;
14394;SDS011;7282;49.204;10.652;2023-05-24T10:33:03;8.77;;;4.73;;
14394;SDS011;7282;49.204;10.652;2023-05-24T10:35:31;6.53;;;4.50;;
14394;SDS011;7282;49.204;10.652;2023-05-24T10:37:58;15.47;;;4.87;;
14394;SDS011;7282;49.204;10.652;2023-05-24T10:40:25;10.47;;;5.13;;
14394;SDS011;7282;49.204;10.652;2023-05-24T10:42:52;9.70;;;5.40;;
14394;SDS011;7282;49.204;10.652;2023-05-24T10:47:50;9.33;;;4.50;;
14394;SDS011;7282;49.204;10.652;2023-05-24T10:50:17;8.50;;;4.67;;
14394;SDS011;7282;49.204;10.652;2023-05-24T10:52:44;10.63;;;4.77;;
14394;SDS011;7282;49.204;10.652;2023-05-24T10:55:12;12.80;;;6.13;;
14394;SDS011;7282;49.204;10.652;2023-05-24T10:57:39;9.53;;;4.70;;
14394;SDS011;7282;49.204;10.652;2023-05-24T11:02:58;8.10;;;4.20;;
14394;SDS011;7282;49.204;10.652;2023-05-24T11:05:19;7.57;;;4.43;;
14394;SDS011;7282;49.204;10.652;2023-05-24T11:07:47;9.70;;;4.20;;
14394;SDS011;7282;49.204;10.652;2023-05-24T11:10:15;7.23;;;4.50;;
14394;SDS011;7282;49.204;10.652;2023-05-24T11:12:41;9.53;;;6.07;;
14394;SDS011;7282;49.204;10.652;2023-05-24T11:15:10;9.43;;;5.27;;
14394;SDS011;7282;49.204;10.652;2023-05-24T11:20:21;10.43;;;4.43;;
14394;SDS011;7282;49.204;10.652;2023-05-24T11:22:48;12.67;;;4.50;;
14394;SDS011;7282;49.204;10.652;2023-05-24T11:25:15;11.03;;;4.70;;
14394;SDS011;7282;49.204;10.652;2023-05-24T11:27:43;7.87;;;4.70;;
14394;SDS011;7282;49.204;10.652;2023-05-24T11:30:11;11.10;;;4.93;;
14394;SDS011;7282;49.204;10.652;2023-05-24T11:32:38;8.83;;;4.47;;
14394;SDS011;7282;49.204;10.652;2023-05-24T11:35:07;10.63;;;4.60;;
14394;SDS011;7282;49.204;10.652;2023-05-24T11:37:36;11.50;;;4.87;;
14394;SDS011;7282;49.204;10.652;2023-05-24T11:40:03;9.63;;;4.77;;
14394;SDS011;7282;49.204;10.652;2023-05-24T11:42:30;8.33;;;4.43;;
14394;SDS011;7282;49.204;10.652;2023-05-24T11:44:57;9.67;;;4.80;;
14394;SDS011;7282;49.204;10.652;2023-05-24T11:47:24;9.27;;;4.90;;
14394;SDS011;7282;49.204;10.652;2023-05-24T11:49:51;7.57;;;4.17;;
14394;SDS011;7282;49.204;10.652;2023-05-24T11:52:18;6.23;;;4.00;;
14394;SDS011;7282;49.204;10.652;2023-05-24T11:54:44;7.37;;;4.53;;
14394;SDS011;7282;49.204;10.652;2023-05-24T11:57:11;8.73;;;4.93;;
14394;SDS011;7282;49.204;10.652;2023-05-24T11:59:38;9.57;;;4.90;;
14394;SDS011;7282;49.204;10.652;2023-05-24T12:02:06;8.00;;;4.50;;
14394;SDS011;7282;49.204;10.652;2023-05-24T12:04:33;9.37;;;4.57;;
14394;SDS011;7282;49.204;10.652;2023-05-24T12:07:01;8.03;;;4.47;;
14394;SDS011;7282;49.204;10.652;2023-05-24T12:09:28;8.43;;;4.03;;
14394;SDS011;7282;49.204;10.652;2023-05-24T12:11:55;10.53;;;4.20;;
14394;SDS011;7282;49.204;10.652;2023-05-24T12:14:26;8.13;;;3.97;;
14394;SDS011;7282;49.204;10.652;2023-05-24T12:16:54;7.10;;;4.13;;
14394;SDS011;7282;49.204;10.652;2023-05-24T12:19:24;8.03;;;4.27;;
14394;SDS011;7282;49.204;10.652;2023-05-24T12:21:59;7.13;;;4.30;;
14394;SDS011;7282;49.204;10.652;2023-05-24T12:24:23;5.17;;;3.70;;
14394;SDS011;7282;49.204;10.652;2023-05-24T12:26:50;6.00;;;3.80;;
14394;SDS011;7282;49.204;10.652;2023-05-24T12:29:18;7.07;;;4.10;;
14394;SDS011;7282;49.204;10.652;2023-05-24T12:31:48;6.90;;;4.17;;
14394;SDS011;7282;49.204;10.652;2023-05-24T12:34:16;7.20;;;4.33;;
14394;SDS011;7282;49.204;10.652;2023-05-24T12:36:43;6.80;;;4.20;;
14394;SDS011;7282;49.204;10.652;2023-05-24T12:39:20;6.67;;;4.40;;
14394;SDS011;7282;49.204;10.652;2023-05-24T12:41:51;8.43;;;4.80;;
14394;SDS011;7282;49.204;10.652;2023-05-24T12:44:24;7.33;;;4.03;;
14394;SDS011;7282;49.204;10.652;2023-05-24T12:46:54;6.40;;;4.33;;
14394;SDS011;7282;49.204;10.652;2023-05-24T12:49:22;8.40;;;4.07;;
14394;SDS011;7282;49.204;10.652;2023-05-24T12:51:49;7.57;;;3.90;;
14394;SDS011;7282;49.204;10.652;2023-05-24T12:54:20;7.60;;;3.90;;
14394;SDS011;7282;49.204;10.652;2023-05-24T12:56:47;9.57;;;4.13;;
14394;SDS011;7282;49.204;10.652;2023-05-24T12:59:14;5.77;;;3.87;;
14394;SDS011;7282;49.204;10.652;2023-05-24T13:01:40;6.57;;;3.73;;
14394;SDS011;7282;49.204;10.652;2023-05-24T13:04:08;6.90;;;4.20;;
14394;SDS011;7282;49.204;10.652;2023-05-24T13:06:35;7.77;;;4.60;;
14394;SDS011;7282;49.204;10.652;2023-05-24T13:09:03;8.07;;;4.30;;
14394;SDS011;7282;49.204;10.652;2023-05-24T13:11:31;7.07;;;4.23;;
14394;SDS011;7282;49.204;10.652;2023-05-24T13:13:58;9.67;;;4.97;;
14394;SDS011;7282;49.204;10.652;2023-05-24T13:16:24;6.70;;;4.27;;
14394;SDS011;7282;49.204;10.652;2023-05-24T13:18:51;9.83;;;4.70;;
14394;SDS011;7282;49.204;10.652;2023-05-24T13:21:18;7.00;;;4.10;;
14394;SDS011;7282;49.204;10.652;2023-05-24T13:23:45;5.77;;;3.83;;
14394;SDS011;7282;49.204;10.652;2023-05-24T13:26:12;6.00;;;3.83;;
14394;SDS011;7282;49.204;10.652;2023-05-24T13:28:39;10.83;;;4.93;;
14394;SDS011;7282;49.204;10.652;2023-05-24T13:31:06;7.27;;;4.60;;
14394;SDS011;7282;49.204;10.652;2023-05-24T13:33:33;8.63;;;4.60;;
14394;SDS011;7282;49.204;10.652;2023-05-24T13:36:00;7.50;;;4.67;;
14394;SDS011;7282;49.204;10.652;2023-05-24T13:38:27;8.70;;;6.37;;
14394;SDS011;7282;49.204;10.652;2023-05-24T13:40:54;7.40;;;4.13;;
14394;SDS011;7282;49.204;10.652;2023-05-24T13:43:21;6.70;;;3.97;;
14394;SDS011;7282;49.204;10.652;2023-05-24T13:45:48;7.60;;;4.50;;
14394;SDS011;7282;49.204;10.652;2023-05-24T13:48:14;6.47;;;4.30;;
14394;SDS011;7282;49.204;10.652;2023-05-24T13:50:41;7.30;;;5.00;;
14394;SDS011;7282;49.204;10.652;2023-05-24T13:53:09;7.13;;;4.53;;
14394;SDS011;7282;49.204;10.652;2023-05-24T13:55:36;6.23;;;4.47;;
14394;SDS011;7282;49.204;10.652;2023-05-24T13:58:05;7.93;;;4.90;;
14394;SDS011;7282;49.204;10.652;2023-05-24T14:00:32;8.73;;;4.40;;
14394;SDS011;7282;49.204;10.652;2023-05-24T14:03:01;9.40;;;4.37;;
14394;SDS011;7282;49.204;10.652;2023-05-24T14:05:28;6.47;;;4.03;;
14394;SDS011;7282;49.204;10.652;2023-05-24T14:07:56;9.03;;;4.73;;
14394;SDS011;7282;49.204;10.652;2023-05-24T14:10:25;8.73;;;4.40;;
14394;SDS011;7282;49.204;10.652;2023-05-24T14:12:51;5.80;;;3.90;;
14394;SDS011;7282;49.204;10.652;2023-05-24T14:15:18;7.33;;;4.47;;
14394;SDS011;7282;49.204;10.652;2023-05-24T14:17:45;50.70;;;9.73;;
14394;SDS011;7282;49.204;10.652;2023-05-24T14:20:11;7.67;;;4.00;;
14394;SDS011;7282;49.204;10.652;2023-05-24T14:22:38;5.83;;;3.50;;
14394;SDS011;7282;49.204;10.652;2023-05-24T14:25:05;6.67;;;3.53;;
14394;SDS011;7282;49.204;10.652;2023-05-24T14:27:33;6.10;;;3.83;;
14394;SDS011;7282;49.204;10.652;2023-05-24T14:29:59;7.77;;;3.83;;
14394;SDS011;7282;49.204;10.652;2023-05-24T14:32:26;7.87;;;3.37;;
14394;SDS011;7282;49.204;10.652;2023-05-24T14:34:53;6.20;;;3.40;;
14394;SDS011;7282;49.204;10.652;2023-05-24T14:37:20;10.03;;;3.67;;
14394;SDS011;7282;49.204;10.652;2023-05-24T14:39:47;6.97;;;4.10;;
14394;SDS011;7282;49.204;10.652;2023-05-24T14:42:14;8.23;;;4.20;;
14394;SDS011;7282;49.204;10.652;2023-05-24T14:44:40;6.23;;;3.87;;
14394;SDS011;7282;49.204;10.652;2023-05-24T14:47:07;5.87;;;3.63;;
14394;SDS011;7282;49.204;10.652;2023-05-24T14:49:34;9.23;;;3.93;;
14394;SDS011;7282;49.204;10.652;2023-05-24T14:52:01;6.43;;;3.70;;
14394;SDS011;7282;49.204;10.652;2023-05-24T14:54:28;6.63;;;3.90;;
14394;SDS011;7282;49.204;10.652;2023-05-24T14:56:54;7.43;;;4.10;;